Decoded Metar for LFBO (TOULOUSE BLAGNAC in FRANCE) (IATA:TLS) | Meteo·Mobile Aviation Weather
aviador You're here:

LFBO Decoded Metar

TOULOUSE BLAGNAC in FRANCE
Report Time2019-10-19 22:00:00
UTC Time2019-10-19 22:30:24
Flight Rules vfr VFR
WindVRB at 02 kt
Visibility9999 m
Phenomena:N/A
Clouds:N/A
Expected CloudBase > 800 ft AGL from Temp-Dew spread
CeilingNone
Temp15°C (ISA +1)
Dew Point13°C (88% RH)
QNH1002 hPa
Density Alt1,198 ft
Elevation502 ft
Report Wrong Elevation
Raw Report
LFBO 192200Z AUTO VRB02KT CAVOK 15/13 Q1002 NOSIG=

Extra information for LFBO:More info

Metar Taf Metar & Taf Last 4 Metars F.Rules Stats Wind Profile Meteogram Temp Stats Airport Information Weather charts Add Link Nearby VenuesMetar ALERT Operation Metar Decoded Social comments